CO26 weather

Kutcher-Lakeview Airport
Galeton, Colorado, United States

Public forecast

Using degrees Fahrenheit for public forecast. Weather courtesy of forecast.io.

Closest aviation weather report (METAR) to Kutcher-Lakeview Airport

Closest report is Greeley–Weld County Airport, 9.4 nm (17.4 km) WSW. Retrieved 2020/02/23 13:56 UTC (33 minutes ago):

KGXY 231356Z AUTO 00000KT 10SM OVC095 01/M04 A3000 RMK AO2 SLP180 T00061039 FZRANO

Closest aviation forecast (TAF) to Kutcher-Lakeview Airport

Closest forecast is Denver International Airport, 40.7 nm (75.4 km) SSW. Retrieved 2020/02/23 12:24 UTC (2 hours ago):

TAF KDEN 231121Z 2312/2418 29008KT P6SM VCSH SCT050 BKN080 TEMPO 2312/2315 6SM -SN OVC050 FM231500 32008KT 4SM -SN BR SCT010 OVC025 TEMPO 2318/2322 1SM -SN BR OVC010 FM232200 34012KT 5SM -SN BR SCT015 OVC025 FM240100 34006KT P6SM SCT025 OVC070 FM240300 18006KT P6SM SCT040 BKN070 FM240600 21008KT P6SM FEW100 SCT250 FM241200 24006KT P6SM SCT100 SCT250